createdAt,value
2019-05-17T00:00:22.261Z,89.60
2019-05-17T00:02:49.631Z,89.50
2019-05-17T00:05:17.832Z,89.60
2019-05-17T00:07:47.253Z,89.60
2019-05-17T00:10:17.045Z,89.50
2019-05-17T00:12:47.055Z,89.40
2019-05-17T00:15:16.853Z,89.40
2019-05-17T00:17:43.773Z,89.40
2019-05-17T00:20:11.165Z,89.60
2019-05-17T00:22:38.538Z,89.30
2019-05-17T00:25:07.491Z,89.80
2019-05-17T00:27:36.632Z,89.60
2019-05-17T00:30:06.617Z,89.70
2019-05-17T00:32:33.991Z,89.50
2019-05-17T00:35:01.302Z,89.90
2019-05-17T00:37:28.867Z,90.10
2019-05-17T00:39:56.670Z,89.80
2019-05-17T00:42:26.279Z,90.30
2019-05-17T00:44:53.150Z,90.30
2019-05-17T00:47:20.288Z,90.60
2019-05-17T00:49:47.671Z,90.60
2019-05-17T00:52:16.692Z,90.00
2019-05-17T00:54:44.016Z,89.70
2019-05-17T00:57:11.114Z,89.50
2019-05-17T00:59:38.678Z,89.60
2019-05-17T01:02:06.966Z,89.40
2019-05-17T01:04:34.187Z,89.30
2019-05-17T01:07:01.422Z,89.10
2019-05-17T01:09:28.679Z,88.90
2019-05-17T01:11:56.696Z,88.90
2019-05-17T01:14:23.983Z,88.70
2019-05-17T01:16:51.197Z,88.70
2019-05-17T01:19:18.339Z,88.70
2019-05-17T01:21:47.493Z,88.60
2019-05-17T01:24:17.070Z,89.10
2019-05-17T01:26:43.642Z,88.70
2019-05-17T01:29:11.306Z,89.30
2019-05-17T01:31:38.465Z,88.70
2019-05-17T01:34:07.285Z,88.70
2019-05-17T01:36:36.879Z,88.70
2019-05-17T01:39:16.968Z,88.70
2019-05-17T01:41:34.121Z,88.90
2019-05-17T01:44:01.522Z,89.30
2019-05-17T01:46:29.065Z,89.60
2019-05-17T01:48:57.709Z,89.80
2019-05-17T01:51:26.342Z,90.10
2019-05-17T01:53:53.668Z,90.30
2019-05-17T01:56:20.948Z,90.60
2019-05-17T01:58:48.048Z,90.60
2019-05-17T02:01:16.950Z,90.90
2019-05-17T02:03:44.152Z,90.80
2019-05-17T02:06:11.204Z,91.10
2019-05-17T02:08:38.399Z,91.00
2019-05-17T02:11:06.833Z,91.50
2019-05-17T02:13:34.243Z,92.10
2019-05-17T02:16:01.547Z,92.30
2019-05-17T02:18:28.675Z,91.70
2019-05-17T02:20:57.078Z,91.80
2019-05-17T02:23:26.861Z,91.90
2019-05-17T02:25:54.071Z,92.00
2019-05-17T02:28:21.456Z,92.00
2019-05-17T02:30:48.918Z,92.20
2019-05-17T02:33:16.535Z,92.40
2019-05-17T02:35:45.125Z,92.30
2019-05-17T02:38:13.252Z,92.40
2019-05-17T02:40:43.120Z,92.70
2019-05-17T02:43:13.034Z,92.70
2019-05-17T02:45:43.565Z,92.80
2019-05-17T02:48:13.135Z,92.40
2019-05-17T02:50:43.027Z,92.50
2019-05-17T02:53:08.859Z,92.30
2019-05-17T02:55:36.126Z,92.10
2019-05-17T02:58:03.867Z,92.00
2019-05-17T03:00:34.096Z,91.60
2019-05-17T03:03:03.454Z,91.50
2019-05-17T03:05:33.407Z,91.30
2019-05-17T03:07:58.762Z,91.50
2019-05-17T03:10:29.050Z,91.60
2019-05-17T03:12:54.725Z,91.80
2019-05-17T03:15:23.376Z,91.70
2019-05-17T03:17:53.742Z,91.60
2019-05-17T03:20:23.318Z,91.30
2019-05-17T03:22:52.341Z,91.10
2019-05-17T03:25:18.912Z,90.80
2019-05-17T03:27:46.348Z,90.60
2019-05-17T03:30:18.193Z,90.40
2019-05-17T03:32:47.756Z,90.60
2019-05-17T03:35:16.882Z,90.90
2019-05-17T03:37:43.725Z,90.90
2019-05-17T03:40:24.842Z,90.90
2019-05-17T03:42:42.838Z,90.90
2019-05-17T03:45:13.483Z,90.70
2019-05-17T03:47:39.554Z,90.80
2019-05-17T03:50:07.089Z,90.80
2019-05-17T03:52:35.499Z,90.90
2019-05-17T03:55:03.829Z,90.80
2019-05-17T03:57:32.335Z,90.60
2019-05-17T04:00:03.504Z,90.40
2019-05-17T04:02:32.449Z,90.20
2019-05-17T04:04:58.469Z,89.80
2019-05-17T04:07:25.617Z,89.60
2019-05-17T04:09:55.979Z,89.70
2019-05-17T04:12:23.321Z,89.70
2019-05-17T04:14:53.364Z,89.20
2019-05-17T04:17:22.730Z,88.90
2019-05-17T04:19:49.153Z,89.00
2019-05-17T04:22:16.556Z,88.70
2019-05-17T04:24:43.958Z,88.70
2019-05-17T04:27:13.581Z,88.90
2019-05-17T04:29:42.543Z,88.60
2019-05-17T04:32:12.664Z,88.00
2019-05-17T04:34:38.918Z,88.10
2019-05-17T04:37:06.079Z,87.70
2019-05-17T04:39:33.581Z,87.50
2019-05-17T04:42:03.888Z,87.40
2019-05-17T04:44:32.226Z,88.00
2019-05-17T04:47:03.428Z,87.60
2019-05-17T04:49:33.054Z,87.40
2019-05-17T04:52:03.338Z,87.40
2019-05-17T04:54:29.266Z,87.10
2019-05-17T04:56:56.223Z,87.10
2019-05-17T04:59:24.278Z,87.20
2019-05-17T05:01:53.750Z,87.30
2019-05-17T05:04:22.627Z,87.00
2019-05-17T05:06:52.482Z,87.30
2019-05-17T05:09:22.912Z,87.20
2019-05-17T05:11:57.098Z,87.70
2019-05-17T05:14:18.356Z,87.80
2019-05-17T05:16:45.376Z,87.70
2019-05-17T05:19:13.166Z,87.40
2019-05-17T05:21:42.621Z,87.20
2019-05-17T05:24:11.567Z,87.20
2019-05-17T05:26:39.144Z,87.30
2019-05-17T05:29:06.419Z,87.20
2019-05-17T05:31:33.550Z,86.90
2019-05-17T05:34:01.859Z,86.60
2019-05-17T05:36:29.300Z,86.30
2019-05-17T05:38:56.368Z,86.20
2019-05-17T05:41:24.015Z,85.90
2019-05-17T05:43:52.603Z,85.50
2019-05-17T05:46:23.557Z,86.00
2019-05-17T05:48:52.191Z,85.90
2019-05-17T05:51:21.622Z,86.00
2019-05-17T05:53:52.042Z,86.00
2019-05-17T05:56:21.828Z,86.00
2019-05-17T05:58:48.649Z,86.00
2019-05-17T06:01:16.168Z,86.10
2019-05-17T06:03:43.060Z,85.30
2019-05-17T06:06:12.180Z,85.50
2019-05-17T06:08:41.371Z,85.30
2019-05-17T06:11:12.325Z,85.20
2019-05-17T06:13:41.740Z,85.90
2019-05-17T06:16:08.213Z,85.40
2019-05-17T06:18:35.259Z,85.50
2019-05-17T06:21:03.219Z,85.70
2019-05-17T06:23:31.591Z,86.00
2019-05-17T06:25:58.939Z,86.10
2019-05-17T06:28:25.838Z,86.10
2019-05-17T06:30:52.804Z,86.10
2019-05-17T06:33:28.096Z,86.10
2019-05-17T06:35:49.107Z,85.90
2019-05-17T06:38:16.194Z,86.00
2019-05-17T06:40:43.335Z,86.50
2019-05-17T06:43:12.942Z,86.90
2019-05-17T06:45:41.871Z,86.50
2019-05-17T06:48:11.462Z,86.20
2019-05-17T06:50:38.609Z,86.90
2019-05-17T06:53:05.582Z,86.30
2019-05-17T06:55:32.460Z,87.00
2019-05-17T06:58:01.706Z,86.90
2019-05-17T07:00:29.929Z,86.40
2019-05-17T07:02:57.264Z,85.80
2019-05-17T07:05:29.378Z,86.30
2019-05-17T07:08:00.326Z,85.90
2019-05-17T07:10:30.476Z,85.20
2019-05-17T07:13:01.203Z,84.50
2019-05-17T07:15:40.062Z,83.70
2019-05-17T07:17:56.102Z,82.70
2019-05-17T07:20:23.433Z,82.50
2019-05-17T07:22:50.817Z,83.40
2019-05-17T07:25:19.800Z,83.20
2019-05-17T07:27:47.051Z,82.30
2019-05-17T07:30:14.637Z,82.40
2019-05-17T07:32:41.739Z,81.30
2019-05-17T07:35:10.821Z,81.80
2019-05-17T07:37:39.734Z,80.60
2019-05-17T07:40:10.453Z,80.50
2019-05-17T07:42:36.662Z,79.10
2019-05-17T07:45:04.701Z,78.30
2019-05-17T07:47:31.814Z,78.60
2019-05-17T07:50:01.047Z,78.20
2019-05-17T07:52:29.986Z,77.50
2019-05-17T07:55:02.046Z,75.90
2019-05-17T07:57:26.879Z,75.40
2019-05-17T07:59:53.759Z,73.40
2019-05-17T08:02:20.964Z,72.60
2019-05-17T08:04:49.926Z,71.70
2019-05-17T08:07:16.876Z,70.10
2019-05-17T08:09:44.646Z,69.50
2019-05-17T08:12:12.368Z,69.30
2019-05-17T08:14:40.130Z,67.70
2019-05-17T08:17:07.198Z,66.30
2019-05-17T08:19:34.692Z,65.80
2019-05-17T08:22:01.583Z,66.20
2019-05-17T08:24:30.305Z,64.10
2019-05-17T08:26:59.928Z,64.00
2019-05-17T08:29:29.305Z,62.00
2019-05-17T08:31:56.200Z,60.50
2019-05-17T08:34:23.087Z,60.00
2019-05-17T08:36:53.466Z,58.20
2019-05-17T08:39:20.746Z,57.40
2019-05-17T08:41:49.746Z,57.30
2019-05-17T08:44:19.139Z,53.70
2019-05-17T08:46:46.513Z,53.00
2019-05-17T08:49:13.860Z,52.50
2019-05-17T08:51:41.162Z,52.00
2019-05-17T08:54:10.260Z,49.60
2019-05-17T08:56:40.015Z,47.70
2019-05-17T08:59:06.624Z,46.80
2019-05-17T09:01:33.678Z,47.90
2019-05-17T09:04:00.757Z,45.30
2019-05-17T09:06:29.304Z,44.90
2019-05-17T09:08:56.743Z,43.30
2019-05-17T09:11:24.123Z,45.10
2019-05-17T09:13:57.890Z,43.10
2019-05-17T09:16:20.241Z,43.30
2019-05-17T09:18:50.046Z,41.90
2019-05-17T09:21:17.065Z,39.80
2019-05-17T09:23:44.258Z,40.30
2019-05-17T09:26:11.428Z,40.60
2019-05-17T09:28:39.439Z,41.10
2019-05-17T09:31:06.969Z,40.30
2019-05-17T09:33:34.208Z,39.70
2019-05-17T09:36:01.427Z,40.30
2019-05-17T09:38:29.559Z,41.10
2019-05-17T09:40:56.889Z,43.20
2019-05-17T09:43:24.461Z,44.70
2019-05-17T09:45:51.635Z,45.30
2019-05-17T09:48:19.645Z,46.60
2019-05-17T09:50:46.934Z,47.50
2019-05-17T09:53:14.131Z,49.80
2019-05-17T09:55:41.152Z,51.00
2019-05-17T09:58:09.938Z,51.80
2019-05-17T10:00:37.463Z,52.40
2019-05-17T10:03:04.788Z,53.30
2019-05-17T10:05:31.738Z,54.90
2019-05-17T10:08:00.055Z,54.20
2019-05-17T10:10:27.697Z,54.50
2019-05-17T10:12:55.383Z,53.30
2019-05-17T10:15:22.605Z,53.90
2019-05-17T10:17:49.985Z,55.30
2019-05-17T10:20:17.211Z,55.40
2019-05-17T10:22:44.541Z,55.60
2019-05-17T10:25:12.107Z,56.30
2019-05-17T10:27:40.695Z,57.40
2019-05-17T10:30:10.379Z,57.70
2019-05-17T10:32:40.467Z,58.40
2019-05-17T10:35:06.899Z,58.50
2019-05-17T10:37:34.079Z,57.60
2019-05-17T10:40:02.422Z,57.90
2019-05-17T10:42:30.717Z,56.00
2019-05-17T10:44:59.958Z,56.70
2019-05-17T10:47:29.933Z,57.50
2019-05-17T10:49:56.298Z,57.40
2019-05-17T10:52:23.508Z,54.70
2019-05-17T10:54:50.896Z,51.00
2019-05-17T10:57:19.427Z,50.60
2019-05-17T10:59:46.893Z,50.80
2019-05-17T11:02:13.880Z,50.70
2019-05-17T11:04:41.017Z,51.10
2019-05-17T11:07:10.282Z,51.00
2019-05-17T11:09:39.848Z,48.90
2019-05-17T11:12:06.463Z,48.70
2019-05-17T11:14:34.115Z,49.20
2019-05-17T11:17:01.423Z,48.00
2019-05-17T11:19:28.692Z,46.90
2019-05-17T11:21:55.753Z,45.50
2019-05-17T11:24:23.135Z,44.20
2019-05-17T11:26:50.501Z,42.30
2019-05-17T11:29:17.924Z,40.50
2019-05-17T11:31:44.823Z,41.80
2019-05-17T11:34:12.026Z,43.00
2019-05-17T11:36:39.200Z,44.90
2019-05-17T11:39:06.161Z,45.40
2019-05-17T11:41:33.538Z,44.70
2019-05-17T11:44:00.460Z,44.30
2019-05-17T11:46:35.912Z,45.30
2019-05-17T11:48:57.455Z,45.20
2019-05-17T11:51:28.099Z,46.40
2019-05-17T11:53:55.134Z,46.10
2019-05-17T11:56:22.395Z,44.70
2019-05-17T11:58:49.233Z,43.10
2019-05-17T12:01:16.070Z,42.50
2019-05-17T12:03:43.530Z,42.50
2019-05-17T12:06:10.711Z,42.50
2019-05-17T12:08:37.877Z,42.30
2019-05-17T12:11:05.215Z,40.80
2019-05-17T12:13:32.618Z,39.70
2019-05-17T12:15:59.836Z,38.90
2019-05-17T12:18:26.789Z,38.20
2019-05-17T12:20:53.940Z,37.40
2019-05-17T12:23:21.059Z,36.70
2019-05-17T12:25:48.512Z,38.80
2019-05-17T12:28:15.818Z,40.00
2019-05-17T12:30:42.987Z,42.90
2019-05-17T12:33:09.837Z,44.00
2019-05-17T12:35:37.086Z,43.30
2019-05-17T12:38:03.957Z,43.60
2019-05-17T12:40:31.166Z,43.10
2019-05-17T12:42:58.300Z,42.40
2019-05-17T12:45:25.433Z,41.80
2019-05-17T12:47:52.737Z,43.10
2019-05-17T12:50:20.031Z,44.10
2019-05-17T12:52:47.195Z,43.20
2019-05-17T12:55:14.581Z,44.10
2019-05-17T12:57:41.954Z,44.90
2019-05-17T13:00:09.716Z,45.20
2019-05-17T13:02:37.034Z,44.70
2019-05-17T13:05:04.469Z,45.90
2019-05-17T13:07:31.883Z,44.50
2019-05-17T13:09:59.303Z,43.60
2019-05-17T13:12:26.619Z,41.60
2019-05-17T13:14:53.848Z,40.80
2019-05-17T13:17:20.680Z,42.10
2019-05-17T13:19:47.663Z,42.60
2019-05-17T13:22:14.778Z,43.50
2019-05-17T13:24:42.182Z,41.60
2019-05-17T13:27:09.480Z,40.70
2019-05-17T13:29:36.898Z,39.10
2019-05-17T13:32:04.383Z,37.60
2019-05-17T13:34:31.592Z,38.20
2019-05-17T13:36:58.687Z,39.40
2019-05-17T13:39:25.953Z,40.70
2019-05-17T13:41:53.659Z,41.50
2019-05-17T13:44:20.627Z,41.10
2019-05-17T13:46:48.108Z,41.60
2019-05-17T13:49:18.358Z,42.40
2019-05-17T13:51:45.433Z,42.90
2019-05-17T13:54:12.826Z,42.00
2019-05-17T13:56:39.834Z,42.10
2019-05-17T13:59:06.770Z,43.00
2019-05-17T14:01:34.087Z,43.40
2019-05-17T14:04:01.282Z,44.60
2019-05-17T14:06:28.704Z,46.10
2019-05-17T14:08:55.738Z,46.30
2019-05-17T14:11:22.878Z,47.70
2019-05-17T14:13:53.136Z,47.60
2019-05-17T14:16:20.392Z,49.00
2019-05-17T14:18:48.563Z,48.80
2019-05-17T14:21:15.868Z,48.00
2019-05-17T14:23:43.301Z,46.80
2019-05-17T14:26:10.986Z,47.20
2019-05-17T14:28:39.566Z,47.60
2019-05-17T14:31:06.401Z,46.90
2019-05-17T14:33:33.958Z,46.40
2019-05-17T14:36:01.298Z,48.70
2019-05-17T14:38:28.668Z,48.30
2019-05-17T14:41:11.734Z,48.30
2019-05-17T14:43:25.934Z,48.00
2019-05-17T14:45:53.637Z,48.00
2019-05-17T14:48:20.576Z,48.30
2019-05-17T14:50:48.188Z,46.20
2019-05-17T14:53:15.232Z,46.60
2019-05-17T14:55:42.355Z,45.60
2019-05-17T14:58:09.788Z,44.20
2019-05-17T15:00:37.128Z,44.80
2019-05-17T15:03:07.448Z,46.20
2019-05-17T15:05:33.620Z,46.40
2019-05-17T15:08:01.159Z,46.50
2019-05-17T15:10:28.858Z,46.20
2019-05-17T15:12:56.242Z,46.40
2019-05-17T15:15:27.145Z,46.60
2019-05-17T15:17:52.611Z,45.60
2019-05-17T15:20:19.848Z,43.90
2019-05-17T15:22:47.084Z,42.50
2019-05-17T15:25:14.422Z,43.30
2019-05-17T15:27:41.554Z,42.30
2019-05-17T15:30:08.991Z,41.20
2019-05-17T15:32:36.076Z,40.60
2019-05-17T15:35:03.220Z,41.00
2019-05-17T15:37:30.446Z,42.30
2019-05-17T15:39:57.504Z,41.70
2019-05-17T15:42:24.876Z,42.00
2019-05-17T15:44:52.250Z,41.40
2019-05-17T15:47:19.573Z,40.80
2019-05-17T15:49:46.989Z,41.30
2019-05-17T15:52:14.191Z,41.10
2019-05-17T15:54:41.432Z,41.00
2019-05-17T15:57:08.607Z,41.90
2019-05-17T15:59:35.973Z,42.60
2019-05-17T16:02:03.115Z,42.70
2019-05-17T16:04:30.654Z,42.20
2019-05-17T16:06:57.880Z,41.40
2019-05-17T16:09:25.058Z,41.00
2019-05-17T16:11:55.739Z,42.50
2019-05-17T16:14:23.111Z,43.10
2019-05-17T16:16:50.262Z,42.70
2019-05-17T16:19:17.666Z,42.70
2019-05-17T16:21:45.048Z,42.90
2019-05-17T16:24:12.217Z,42.70
2019-05-17T16:26:39.663Z,42.90
2019-05-17T16:29:06.798Z,42.40
2019-05-17T16:31:34.182Z,43.00
2019-05-17T16:34:01.752Z,43.00
2019-05-17T16:36:28.994Z,43.00
2019-05-17T16:38:56.281Z,43.20
2019-05-17T16:41:23.535Z,43.70
2019-05-17T16:43:51.014Z,42.40
2019-05-17T16:46:21.978Z,42.50
2019-05-17T16:48:49.501Z,42.60
2019-05-17T16:51:16.502Z,42.90
2019-05-17T16:53:43.764Z,45.00
2019-05-17T16:56:11.706Z,44.90
2019-05-17T16:58:38.959Z,46.00
2019-05-17T17:01:06.147Z,46.10
2019-05-17T17:03:43.886Z,47.00
2019-05-17T17:06:02.792Z,47.10
2019-05-17T17:08:30.038Z,47.90
2019-05-17T17:10:57.690Z,48.90
2019-05-17T17:13:32.671Z,49.50
2019-05-17T17:15:54.181Z,49.90
2019-05-17T17:18:21.309Z,49.60
2019-05-17T17:20:48.619Z,49.90
2019-05-17T17:23:15.877Z,49.90
2019-05-17T17:25:43.607Z,51.00
2019-05-17T17:28:10.684Z,51.50
2019-05-17T17:30:38.279Z,51.90
2019-05-17T17:33:05.390Z,52.60
2019-05-17T17:35:32.727Z,53.10
2019-05-17T17:38:00.014Z,53.20
2019-05-17T17:40:27.627Z,53.50
2019-05-17T17:42:55.254Z,53.70
2019-05-17T17:45:23.562Z,54.00
2019-05-17T17:47:50.995Z,54.40
2019-05-17T17:50:18.614Z,54.70
2019-05-17T17:52:48.608Z,55.20
2019-05-17T17:55:16.299Z,55.90
2019-05-17T17:57:43.332Z,55.70
2019-05-17T18:00:11.867Z,56.50
2019-05-17T18:02:39.023Z,57.00
2019-05-17T18:05:06.765Z,57.50
2019-05-17T18:07:34.317Z,57.60
2019-05-17T18:10:01.772Z,57.80
2019-05-17T18:12:29.423Z,58.00
2019-05-17T18:14:57.171Z,57.90
2019-05-17T18:17:24.170Z,58.20
2019-05-17T18:19:51.686Z,58.70
2019-05-17T18:22:19.089Z,58.30
2019-05-17T18:24:46.492Z,58.80
2019-05-17T18:27:14.020Z,59.00
2019-05-17T18:29:41.628Z,59.40
2019-05-17T18:32:08.865Z,59.80
2019-05-17T18:34:38.223Z,59.90
2019-05-17T18:37:05.714Z,60.30
2019-05-17T18:39:33.032Z,60.50
2019-05-17T18:42:00.658Z,60.90
2019-05-17T18:44:28.288Z,61.40
2019-05-17T18:46:55.613Z,61.50
2019-05-17T18:49:22.864Z,62.20
2019-05-17T18:51:49.936Z,62.60
2019-05-17T18:54:17.307Z,63.00
2019-05-17T18:56:44.420Z,63.80
2019-05-17T18:59:11.387Z,63.90
2019-05-17T19:01:38.727Z,64.20
2019-05-17T19:04:06.029Z,64.60
2019-05-17T19:06:33.942Z,65.10
2019-05-17T19:09:01.156Z,65.50
2019-05-17T19:11:30.548Z,66.00
2019-05-17T19:13:57.683Z,66.40
2019-05-17T19:16:24.832Z,66.40
2019-05-17T19:18:52.738Z,67.00
2019-05-17T19:21:19.909Z,67.30
2019-05-17T19:23:47.192Z,67.80
2019-05-17T19:26:17.571Z,68.30
2019-05-17T19:28:45.098Z,68.30
2019-05-17T19:31:12.531Z,68.50
2019-05-17T19:33:39.691Z,68.90
2019-05-17T19:36:06.661Z,69.00
2019-05-17T19:38:34.030Z,69.30
2019-05-17T19:41:01.466Z,69.30
2019-05-17T19:43:30.006Z,69.60
2019-05-17T19:45:57.319Z,69.70
2019-05-17T19:48:24.752Z,70.30
2019-05-17T19:50:51.777Z,70.20
2019-05-17T19:53:19.388Z,70.30
2019-05-17T19:55:47.757Z,71.00
2019-05-17T19:58:15.177Z,72.00
2019-05-17T20:00:42.073Z,72.30
2019-05-17T20:03:09.363Z,72.90
2019-05-17T20:05:36.571Z,72.50
2019-05-17T20:08:03.825Z,72.60
2019-05-17T20:10:31.328Z,73.40
2019-05-17T20:12:58.746Z,73.70
2019-05-17T20:15:34.130Z,74.00
2019-05-17T20:17:55.093Z,74.00
2019-05-17T20:20:22.250Z,73.70
2019-05-17T20:22:49.517Z,73.80
2019-05-17T20:25:16.762Z,74.20
2019-05-17T20:27:43.989Z,73.90
2019-05-17T20:30:11.318Z,74.40
2019-05-17T20:32:38.953Z,74.70
2019-05-17T20:35:06.729Z,74.60
2019-05-17T20:37:33.700Z,74.70
2019-05-17T20:40:00.905Z,75.60
2019-05-17T20:42:28.384Z,75.90
2019-05-17T20:44:55.646Z,76.30
2019-05-17T20:47:22.954Z,76.40
2019-05-17T20:49:50.427Z,76.60
2019-05-17T20:52:17.520Z,76.60
2019-05-17T20:54:45.649Z,77.10
2019-05-17T20:57:12.652Z,77.50
2019-05-17T20:59:39.756Z,77.90
2019-05-17T21:02:06.802Z,78.20
2019-05-17T21:04:33.731Z,78.50
2019-05-17T21:07:00.672Z,78.70
2019-05-17T21:09:30.919Z,78.70
2019-05-17T21:11:58.469Z,78.90
2019-05-17T21:14:25.972Z,79.00
2019-05-17T21:16:53.246Z,78.90
2019-05-17T21:19:20.254Z,79.10
2019-05-17T21:21:47.431Z,79.30
2019-05-17T21:24:14.580Z,79.20
2019-05-17T21:26:41.618Z,79.20
2019-05-17T21:29:08.855Z,78.90
2019-05-17T21:31:36.453Z,79.00
2019-05-17T21:34:03.760Z,79.20
2019-05-17T21:36:31.032Z,79.60
2019-05-17T21:38:58.037Z,79.40
2019-05-17T21:41:25.182Z,79.40
2019-05-17T21:43:52.758Z,79.60
2019-05-17T21:46:20.271Z,80.00
2019-05-17T21:48:48.464Z,80.50
2019-05-17T21:51:16.212Z,80.80
2019-05-17T21:53:43.629Z,80.70
2019-05-17T21:56:10.840Z,81.00
2019-05-17T21:58:37.735Z,81.10
2019-05-17T22:01:12.399Z,81.00
2019-05-17T22:03:39.555Z,80.80
2019-05-17T22:06:07.322Z,81.10
2019-05-17T22:08:34.281Z,81.20
2019-05-17T22:11:01.574Z,81.50
2019-05-17T22:13:29.057Z,82.40
2019-05-17T22:15:55.927Z,83.00
2019-05-17T22:18:23.096Z,83.60
2019-05-17T22:20:50.308Z,83.80
2019-05-17T22:23:17.659Z,84.20
2019-05-17T22:25:48.239Z,84.10
2019-05-17T22:28:15.730Z,83.90
2019-05-17T22:30:42.863Z,83.30
2019-05-17T22:33:10.370Z,83.00
2019-05-17T22:35:38.236Z,83.20
2019-05-17T22:38:05.341Z,83.50
2019-05-17T22:40:32.493Z,84.10
2019-05-17T22:42:59.989Z,84.50
2019-05-17T22:45:27.614Z,84.60
2019-05-17T22:47:54.731Z,84.60
2019-05-17T22:50:22.214Z,84.80
2019-05-17T22:52:49.646Z,84.80
2019-05-17T22:55:20.972Z,84.80
2019-05-17T22:57:48.086Z,84.90
2019-05-17T23:00:15.589Z,85.10
2019-05-17T23:02:42.680Z,85.00
2019-05-17T23:05:09.820Z,85.10
2019-05-17T23:07:37.013Z,85.20
2019-05-17T23:10:04.553Z,85.70
2019-05-17T23:12:32.190Z,85.70
2019-05-17T23:14:59.478Z,85.70
2019-05-17T23:17:26.685Z,86.00
2019-05-17T23:19:54.030Z,85.90
2019-05-17T23:22:21.231Z,85.70
2019-05-17T23:24:49.080Z,85.70
2019-05-17T23:27:16.256Z,85.90
2019-05-17T23:29:43.755Z,86.80
2019-05-17T23:32:10.801Z,87.00
2019-05-17T23:34:37.837Z,87.20
2019-05-17T23:37:04.999Z,87.20
2019-05-17T23:39:32.197Z,87.40
2019-05-17T23:41:59.674Z,87.70
2019-05-17T23:44:26.963Z,87.80
2019-05-17T23:47:06.171Z,87.60
2019-05-17T23:49:27.179Z,87.70
2019-05-17T23:51:54.252Z,87.50
2019-05-17T23:54:21.455Z,87.50
2019-05-17T23:56:48.283Z,87.60
2019-05-17T23:59:15.202Z,88.00
